Jolly Acres, South Dakota
Current Conditions -  °F | °C
As of 3:52 AM on Friday 28 Nov 2014 (Local Time) from KRAP Reporting Station
Clear Clear  
Wind Chill: -1°   Ceiling: Unl
Heat Index: -1°   Visibility: 10mi
Dew Point: -4°   Wind: 0mph
Humidity: 76%   Direction: NA
Pressure: 29.7"   Gusts: NA
Location:  44.0731°N, 103.205°W
Report Text: KRAP 281052Z AUTO 00000KT 10SM CLR M01/M04 A2970 RMK AO2 SLP083 T10061044
Loading
Personal Weather Stations






























Interactive Weather Map New forecast layout! Learn more

10-Day Weather Forecast

Advertisements
Track Severe Weather on mobile